Terminal Aerodrome Forecast
Issued by NWS

Home | Current Version | Previous Version | Graphics & Text | Print | Product List | Glossary On
Versions: 1 2 3 4 5 6 7 8 9 10 11 12 13 14 15 16
097
FTUS43 KIWX 161730
TAFSBN
TAF
KSBN 161730Z 1618/1718 30010KT P6SM SCT035
     FM170000 22005KT P6SM FEW200
     FM171400 22014G18KT P6SM SKC=

USA.gov is the U.S. government's official web portal to all federal, state and local government web resources and services.